createdAt,value
2017-02-04T00:00:20.558Z,928.59
2017-02-04T00:00:48.534Z,928.58
2017-02-04T00:01:16.801Z,928.55
2017-02-04T00:01:44.745Z,928.56
2017-02-04T00:02:12.914Z,928.55
2017-02-04T00:02:41.040Z,928.56
2017-02-04T00:03:09.267Z,928.56
2017-02-04T00:03:37.334Z,928.58
2017-02-04T00:04:05.394Z,928.54
2017-02-04T00:04:33.400Z,928.53
2017-02-04T00:05:01.453Z,928.59
2017-02-04T00:05:29.596Z,928.55
2017-02-04T00:05:57.845Z,928.56
2017-02-04T00:06:26.237Z,928.58
2017-02-04T00:06:54.198Z,928.62
2017-02-04T00:07:22.472Z,928.62
2017-02-04T00:07:50.655Z,928.64
2017-02-04T00:08:18.668Z,928.67
2017-02-04T00:08:46.621Z,928.65
2017-02-04T00:09:14.657Z,928.63
2017-02-04T00:09:42.767Z,928.72
2017-02-04T00:10:10.598Z,928.69
2017-02-04T00:10:38.736Z,928.71
2017-02-04T00:11:06.857Z,928.72
2017-02-04T00:11:35.104Z,928.7
2017-02-04T00:12:03.053Z,928.72
2017-02-04T00:12:31.055Z,928.67
2017-02-04T00:12:59.146Z,928.69
2017-02-04T00:13:27.396Z,928.68
2017-02-04T00:13:55.531Z,928.66
2017-02-04T00:14:23.561Z,928.62
2017-02-04T00:14:51.828Z,928.66
2017-02-04T00:15:20.014Z,928.66
2017-02-04T00:15:48.050Z,928.68
2017-02-04T00:16:16.248Z,928.65
2017-02-04T00:16:44.594Z,928.65
2017-02-04T00:17:12.721Z,928.65
2017-02-04T00:17:40.811Z,928.67
2017-02-04T00:18:08.868Z,928.65
2017-02-04T00:18:37.026Z,928.68
2017-02-04T00:19:05.265Z,928.65
2017-02-04T00:19:33.318Z,928.68
2017-02-04T00:20:01.484Z,928.68
2017-02-04T00:20:29.710Z,928.69
2017-02-04T00:20:57.864Z,928.68
2017-02-04T00:21:26.109Z,928.73
2017-02-04T00:21:54.156Z,928.72
2017-02-04T00:22:22.403Z,928.72
2017-02-04T00:22:50.563Z,928.7
2017-02-04T00:23:18.782Z,928.73
2017-02-04T00:23:46.928Z,928.73
2017-02-04T00:24:14.982Z,928.76
2017-02-04T00:24:43.116Z,928.78
2017-02-04T00:25:11.070Z,928.78
2017-02-04T00:25:39.239Z,928.81
2017-02-04T00:26:07.425Z,928.83
2017-02-04T00:26:35.521Z,928.88
2017-02-04T00:27:03.632Z,928.85
2017-02-04T00:27:31.787Z,928.87
2017-02-04T00:27:59.868Z,928.94
2017-02-04T00:28:28.084Z,928.92
2017-02-04T00:28:56.138Z,928.94
2017-02-04T00:29:24.302Z,928.92
2017-02-04T00:29:52.495Z,928.93
2017-02-04T00:30:20.638Z,928.97
2017-02-04T00:30:48.758Z,928.98
2017-02-04T00:31:16.903Z,928.97
2017-02-04T00:31:45.185Z,928.99
2017-02-04T00:32:13.144Z,928.99
2017-02-04T00:32:41.234Z,928.99
2017-02-04T00:33:09.389Z,929.02
2017-02-04T00:33:37.588Z,928.96
2017-02-04T00:34:05.830Z,929
2017-02-04T00:34:34.012Z,929.01
2017-02-04T00:35:02.158Z,928.98
2017-02-04T00:35:30.229Z,929.01
2017-02-04T00:35:58.555Z,929.03
2017-02-04T00:36:26.732Z,929.06
2017-02-04T00:36:54.908Z,929.02
2017-02-04T00:37:22.849Z,929.03
2017-02-04T00:37:51.022Z,929.08
2017-02-04T00:38:19.267Z,929.08
2017-02-04T00:38:47.204Z,929.05
2017-02-04T00:39:15.262Z,929.07
2017-02-04T00:39:43.385Z,929.1
2017-02-04T00:40:11.592Z,929.09
2017-02-04T00:40:39.596Z,929.05
2017-02-04T00:41:07.702Z,929.05
2017-02-04T00:41:36.059Z,929.09
2017-02-04T00:42:04.214Z,929.11
2017-02-04T00:42:32.360Z,929.11
2017-02-04T00:43:00.502Z,929.11
2017-02-04T00:43:28.499Z,929.1
2017-02-04T00:43:56.782Z,929.07
2017-02-04T00:44:24.915Z,929.13
2017-02-04T00:44:52.884Z,929.09
2017-02-04T00:45:20.654Z,929.13
2017-02-04T00:45:48.796Z,929.07
2017-02-04T00:46:16.952Z,929.1
2017-02-04T00:46:45.326Z,929.09
2017-02-04T00:47:13.372Z,929.11
2017-02-04T00:47:41.643Z,929.1
2017-02-04T00:48:09.620Z,929.11
2017-02-04T00:48:37.805Z,929.09
2017-02-04T00:49:05.985Z,929.12
2017-02-04T00:49:34.249Z,929.08
2017-02-04T00:50:02.382Z,929.08
2017-02-04T00:50:30.416Z,929.08
2017-02-04T00:50:58.656Z,929.07
2017-02-04T00:51:26.644Z,929.1
2017-02-04T00:51:54.988Z,929.12
2017-02-04T00:52:23.133Z,929.14
2017-02-04T00:52:51.404Z,929.13
2017-02-04T00:53:19.501Z,929.16
2017-02-04T00:53:47.620Z,929.16
2017-02-04T00:54:15.660Z,929.18
2017-02-04T00:54:43.812Z,929.18
2017-02-04T00:55:12.001Z,929.15
2017-02-04T00:55:40.265Z,929.13
2017-02-04T00:56:08.233Z,929.16
2017-02-04T00:56:36.461Z,929.14
2017-02-04T00:57:04.697Z,929.18
2017-02-04T00:57:32.565Z,929.17
2017-02-04T00:58:00.577Z,929.13
2017-02-04T00:58:28.744Z,929.15
2017-02-04T00:58:56.959Z,929.19
2017-02-04T00:59:25.024Z,929.16
2017-02-04T00:59:53.204Z,929.13
2017-02-04T01:00:21.295Z,929.15
2017-02-04T01:00:49.405Z,929.18
2017-02-04T01:01:17.450Z,929.14
2017-02-04T01:01:45.637Z,929.15
2017-02-04T01:02:13.787Z,929.17
2017-02-04T01:02:41.850Z,929.13
2017-02-04T01:03:09.792Z,929.12
2017-02-04T01:03:37.904Z,929.11
2017-02-04T01:04:06.113Z,929.15
2017-02-04T01:04:34.337Z,929.11
2017-02-04T01:05:02.569Z,929.11
2017-02-04T01:05:30.755Z,929.15
2017-02-04T01:05:58.885Z,929.13
2017-02-04T01:06:26.944Z,929.14
2017-02-04T01:06:54.930Z,929.12
2017-02-04T01:07:22.879Z,929.13
2017-02-04T01:07:51.027Z,929.18
2017-02-04T01:08:19.117Z,929.19
2017-02-04T01:08:47.212Z,929.15
2017-02-04T01:09:15.413Z,929.18
2017-02-04T01:09:43.509Z,929.18
2017-02-04T01:10:11.652Z,929.17
2017-02-04T01:10:39.752Z,929.19
2017-02-04T01:11:08.036Z,929.18
2017-02-04T01:11:36.217Z,929.18
2017-02-04T01:12:04.505Z,929.19
2017-02-04T01:12:32.776Z,929.18
2017-02-04T01:13:00.944Z,929.16
2017-02-04T01:13:28.999Z,929.19
2017-02-04T01:13:57.211Z,929.18
2017-02-04T01:14:25.266Z,929.17
2017-02-04T01:14:53.521Z,929.18
2017-02-04T01:15:21.758Z,929.17
2017-02-04T01:15:49.983Z,929.14
2017-02-04T01:16:18.057Z,929.15
2017-02-04T01:16:46.098Z,929.15
2017-02-04T01:17:14.351Z,929.11
2017-02-04T01:17:42.403Z,929.1
2017-02-04T01:18:10.473Z,929.08
2017-02-04T01:18:38.563Z,929.06
2017-02-04T01:19:06.769Z,929.07
2017-02-04T01:19:34.928Z,929.07
2017-02-04T01:20:03.047Z,929.06
2017-02-04T01:20:31.087Z,929.05
2017-02-04T01:20:59.238Z,929.04
2017-02-04T01:21:27.284Z,929.03
2017-02-04T01:21:55.453Z,929.02
2017-02-04T01:22:23.713Z,928.98
2017-02-04T01:22:51.947Z,929.01
2017-02-04T01:23:20.183Z,928.98
2017-02-04T01:23:48.388Z,928.96
2017-02-04T01:24:16.518Z,929
2017-02-04T01:24:44.812Z,928.96
2017-02-04T01:25:12.774Z,928.95
2017-02-04T01:25:40.904Z,928.94
2017-02-04T01:26:09.138Z,928.91
2017-02-04T01:26:37.417Z,928.9
2017-02-04T01:27:05.814Z,928.93
2017-02-04T01:27:34.007Z,928.91
2017-02-04T01:28:02.162Z,928.88
2017-02-04T01:28:30.166Z,928.9
2017-02-04T01:28:58.156Z,928.89
2017-02-04T01:29:26.161Z,928.89
2017-02-04T01:29:54.393Z,928.92
2017-02-04T01:30:22.665Z,928.89
2017-02-04T01:30:50.564Z,928.89
2017-02-04T01:31:18.791Z,928.89
2017-02-04T01:31:47.041Z,928.86
2017-02-04T01:32:15.264Z,928.86
2017-02-04T01:32:43.362Z,928.86
2017-02-04T01:33:11.457Z,928.84
2017-02-04T01:33:39.633Z,928.86
2017-02-04T01:34:07.801Z,928.86
2017-02-04T01:34:35.933Z,928.82
2017-02-04T01:35:03.947Z,928.84
2017-02-04T01:35:32.012Z,928.83
2017-02-04T01:36:00.167Z,928.82
2017-02-04T01:36:28.014Z,928.79
2017-02-04T01:36:56.167Z,928.81
2017-02-04T01:37:24.313Z,928.82
2017-02-04T01:37:52.509Z,928.85
2017-02-04T01:38:20.762Z,928.81
2017-02-04T01:38:48.892Z,928.83
2017-02-04T01:39:17.001Z,928.84
2017-02-04T01:39:45.144Z,928.84
2017-02-04T01:40:13.192Z,928.85
2017-02-04T01:40:41.172Z,928.84
2017-02-04T01:41:09.407Z,928.89
2017-02-04T01:41:37.626Z,928.86
2017-02-04T01:42:05.698Z,928.87
2017-02-04T01:42:33.796Z,928.87
2017-02-04T01:43:01.857Z,928.86
2017-02-04T01:43:29.904Z,928.86
2017-02-04T01:43:58.042Z,928.86
2017-02-04T01:44:26.085Z,928.86
2017-02-04T01:44:54.155Z,928.84
2017-02-04T01:45:22.209Z,928.83
2017-02-04T01:45:50.384Z,928.85
2017-02-04T01:46:18.448Z,928.84
2017-02-04T01:46:46.447Z,928.86
2017-02-04T01:47:14.606Z,928.85
2017-02-04T01:47:42.673Z,928.83
2017-02-04T01:48:10.812Z,928.85
2017-02-04T01:48:38.765Z,928.87
2017-02-04T01:49:06.876Z,928.84
2017-02-04T01:49:35.055Z,928.84
2017-02-04T01:50:03.246Z,928.87
2017-02-04T01:50:31.393Z,928.93
2017-02-04T01:50:59.401Z,928.9
2017-02-04T01:51:27.342Z,928.9
2017-02-04T01:51:55.462Z,928.88
2017-02-04T01:52:23.697Z,928.87
2017-02-04T01:52:51.924Z,928.9
2017-02-04T01:53:19.965Z,928.89
2017-02-04T01:53:48.106Z,928.91
2017-02-04T01:54:16.144Z,928.87
2017-02-04T01:54:44.333Z,928.89
2017-02-04T01:55:12.331Z,928.87
2017-02-04T01:55:40.386Z,928.89
2017-02-04T01:56:08.613Z,928.9
2017-02-04T01:56:36.748Z,928.89
2017-02-04T01:57:04.737Z,928.9
2017-02-04T01:57:33.021Z,928.88
2017-02-04T01:58:01.276Z,928.87
2017-02-04T01:58:29.524Z,928.88
2017-02-04T01:58:57.563Z,928.89
2017-02-04T01:59:25.628Z,928.87
2017-02-04T01:59:53.761Z,928.88
2017-02-04T02:00:21.775Z,928.86
2017-02-04T02:00:49.910Z,928.86
2017-02-04T02:01:17.980Z,928.85
2017-02-04T02:01:46.286Z,928.84
2017-02-04T02:02:14.511Z,928.86
2017-02-04T02:02:42.552Z,928.87
2017-02-04T02:03:10.630Z,928.83
2017-02-04T02:03:38.626Z,928.8
2017-02-04T02:04:06.821Z,928.83
2017-02-04T02:04:35.101Z,928.82
2017-02-04T02:05:03.301Z,928.84
2017-02-04T02:05:31.377Z,928.8
2017-02-04T02:05:59.562Z,928.83
2017-02-04T02:06:27.844Z,928.83
2017-02-04T02:06:55.975Z,928.82
2017-02-04T02:07:24.122Z,928.85
2017-02-04T02:07:52.262Z,928.83
2017-02-04T02:08:20.390Z,928.88
2017-02-04T02:08:48.432Z,928.87
2017-02-04T02:09:16.516Z,928.86
2017-02-04T02:09:44.684Z,928.91
2017-02-04T02:10:12.648Z,928.9
2017-02-04T02:10:40.802Z,928.92
2017-02-04T02:11:09.075Z,928.93
2017-02-04T02:11:37.166Z,928.95
2017-02-04T02:12:05.349Z,928.91
2017-02-04T02:12:33.639Z,928.96
2017-02-04T02:13:01.665Z,928.92
2017-02-04T02:13:29.719Z,928.94
2017-02-04T02:13:57.863Z,928.92
2017-02-04T02:14:25.910Z,928.93
2017-02-04T02:14:54.049Z,928.91
2017-02-04T02:15:22.215Z,928.91
2017-02-04T02:15:50.389Z,928.9
2017-02-04T02:16:18.583Z,928.83
2017-02-04T02:16:46.554Z,928.88
2017-02-04T02:17:14.674Z,928.87
2017-02-04T02:17:42.840Z,928.88
2017-02-04T02:18:10.731Z,928.9
2017-02-04T02:18:38.754Z,928.89
2017-02-04T02:19:06.939Z,928.89
2017-02-04T02:19:35.026Z,928.87
2017-02-04T02:20:03.453Z,928.88
2017-02-04T02:20:31.680Z,928.9
2017-02-04T02:20:59.937Z,928.91
2017-02-04T02:21:28.094Z,928.87
2017-02-04T02:21:56.070Z,928.91
2017-02-04T02:22:24.192Z,928.89
2017-02-04T02:22:52.321Z,928.89
2017-02-04T02:23:20.375Z,928.87
2017-02-04T02:23:48.625Z,928.88
2017-02-04T02:24:16.840Z,928.87
2017-02-04T02:24:44.876Z,928.91
2017-02-04T02:25:13.007Z,928.89
2017-02-04T02:25:41.209Z,928.84
2017-02-04T02:26:09.333Z,928.87
2017-02-04T02:26:37.413Z,928.86
2017-02-04T02:27:05.631Z,928.87
2017-02-04T02:27:33.793Z,928.86
2017-02-04T02:28:02.168Z,928.85
2017-02-04T02:28:30.286Z,928.86
2017-02-04T02:28:58.408Z,928.88
2017-02-04T02:29:26.600Z,928.85
2017-02-04T02:29:54.738Z,928.83
2017-02-04T02:30:22.753Z,928.83
2017-02-04T02:30:50.813Z,928.84
2017-02-04T02:31:18.824Z,928.82
2017-02-04T02:31:46.988Z,928.82
2017-02-04T02:32:15.237Z,928.8
2017-02-04T02:32:43.584Z,928.79
2017-02-04T02:33:11.809Z,928.76
2017-02-04T02:33:39.782Z,928.76
2017-02-04T02:34:07.952Z,928.75
2017-02-04T02:34:36.016Z,928.76
2017-02-04T02:35:04.244Z,928.76
2017-02-04T02:35:32.427Z,928.74
2017-02-04T02:36:00.583Z,928.72
2017-02-04T02:36:28.657Z,928.73
2017-02-04T02:36:56.631Z,928.72
2017-02-04T02:37:24.894Z,928.72
2017-02-04T02:37:53.199Z,928.71
2017-02-04T02:38:21.360Z,928.72
2017-02-04T02:38:49.436Z,928.73
2017-02-04T02:39:17.519Z,928.78
2017-02-04T02:39:45.691Z,928.76
2017-02-04T02:40:13.806Z,928.78
2017-02-04T02:40:42.014Z,928.79
2017-02-04T02:41:10.196Z,928.78
2017-02-04T02:41:38.319Z,928.8
2017-02-04T02:42:06.381Z,928.79
2017-02-04T02:42:34.261Z,928.79
2017-02-04T02:43:02.617Z,928.77
2017-02-04T02:43:30.862Z,928.76
2017-02-04T02:43:59.083Z,928.77
2017-02-04T02:44:27.260Z,928.76
2017-02-04T02:44:55.417Z,928.72
2017-02-04T02:45:23.538Z,928.73
2017-02-04T02:45:51.664Z,928.69
2017-02-04T02:46:19.589Z,928.7
2017-02-04T02:46:47.776Z,928.67
2017-02-04T02:47:15.901Z,928.69
2017-02-04T02:47:43.889Z,928.67
2017-02-04T02:48:12.039Z,928.66
2017-02-04T02:48:40.127Z,928.63
2017-02-04T02:49:08.424Z,928.65
2017-02-04T02:49:36.522Z,928.66
2017-02-04T02:50:04.592Z,928.65
2017-02-04T02:50:32.583Z,928.67
2017-02-04T02:51:00.642Z,928.7
2017-02-04T02:51:28.653Z,928.68
2017-02-04T02:51:56.654Z,928.64
2017-02-04T02:52:24.774Z,928.69
2017-02-04T02:52:52.925Z,928.69
2017-02-04T02:53:21.082Z,928.65
2017-02-04T02:53:49.228Z,928.7
2017-02-04T02:54:17.354Z,928.67
2017-02-04T02:54:45.495Z,928.68
2017-02-04T02:55:13.443Z,928.71
2017-02-04T02:55:41.614Z,928.66
2017-02-04T02:56:09.773Z,928.66
2017-02-04T02:56:37.643Z,928.66
2017-02-04T02:57:05.819Z,928.63
2017-02-04T02:57:33.786Z,928.64
2017-02-04T02:58:02.072Z,928.66
2017-02-04T02:58:30.125Z,928.63
2017-02-04T02:58:58.114Z,928.64
2017-02-04T02:59:26.100Z,928.64
2017-02-04T02:59:54.305Z,928.61
2017-02-04T03:00:22.492Z,928.66
2017-02-04T03:00:50.705Z,928.66
2017-02-04T03:01:18.762Z,928.65
2017-02-04T03:01:46.781Z,928.66
2017-02-04T03:02:14.790Z,928.65
2017-02-04T03:02:42.795Z,928.64
2017-02-04T03:03:10.977Z,928.63
2017-02-04T03:03:39.148Z,928.66
2017-02-04T03:04:07.311Z,928.72
2017-02-04T03:04:35.486Z,928.67
2017-02-04T03:05:03.623Z,928.69
2017-02-04T03:05:31.943Z,928.69
2017-02-04T03:06:00.197Z,928.66
2017-02-04T03:06:28.374Z,928.64
2017-02-04T03:06:56.536Z,928.64
2017-02-04T03:07:24.710Z,928.6
2017-02-04T03:07:52.842Z,928.59
2017-02-04T03:08:20.972Z,928.59
2017-02-04T03:08:49.031Z,928.56
2017-02-04T03:09:17.204Z,928.57
2017-02-04T03:09:45.376Z,928.53
2017-02-04T03:10:13.554Z,928.52
2017-02-04T03:10:41.515Z,928.48
2017-02-04T03:11:09.714Z,928.51
2017-02-04T03:11:37.814Z,928.46
2017-02-04T03:12:05.847Z,928.5
2017-02-04T03:12:34.027Z,928.51
2017-02-04T03:13:01.982Z,928.52
2017-02-04T03:13:29.956Z,928.5
2017-02-04T03:13:58.079Z,928.5
2017-02-04T03:14:26.210Z,928.51
2017-02-04T03:14:54.422Z,928.52
2017-02-04T03:15:22.469Z,928.5
2017-02-04T03:15:50.513Z,928.5
2017-02-04T03:16:18.759Z,928.47
2017-02-04T03:16:47.019Z,928.47
2017-02-04T03:17:15.193Z,928.48
2017-02-04T03:17:43.445Z,928.47
2017-02-04T03:18:11.793Z,928.45
2017-02-04T03:18:39.907Z,928.42
2017-02-04T03:19:07.963Z,928.41
2017-02-04T03:19:36.090Z,928.41
2017-02-04T03:20:04.096Z,928.38
2017-02-04T03:20:32.378Z,928.37
2017-02-04T03:21:00.529Z,928.37
2017-02-04T03:21:28.677Z,928.36
2017-02-04T03:21:56.843Z,928.34
2017-02-04T03:22:24.579Z,928.37
2017-02-04T03:22:52.735Z,928.33
2017-02-04T03:23:21.067Z,928.31
2017-02-04T03:23:49.213Z,928.35
2017-02-04T03:24:17.353Z,928.29
2017-02-04T03:24:45.410Z,928.28
2017-02-04T03:25:13.551Z,928.3
2017-02-04T03:25:41.553Z,928.26
2017-02-04T03:26:09.619Z,928.27
2017-02-04T03:26:37.734Z,928.25
2017-02-04T03:27:05.825Z,928.25
2017-02-04T03:27:33.965Z,928.26
2017-02-04T03:28:02.106Z,928.24
2017-02-04T03:28:30.070Z,928.19
2017-02-04T03:28:58.299Z,928.21
2017-02-04T03:29:26.497Z,928.2
2017-02-04T03:29:54.436Z,928.19
2017-02-04T03:30:22.725Z,928.21
2017-02-04T03:30:50.914Z,928.17
2017-02-04T03:31:19.157Z,928.18
2017-02-04T03:31:47.184Z,928.17
2017-02-04T03:32:15.268Z,928.21
2017-02-04T03:32:43.490Z,928.19
2017-02-04T03:33:11.747Z,928.18
2017-02-04T03:33:39.826Z,928.22
2017-02-04T03:34:08.038Z,928.24
2017-02-04T03:34:36.232Z,928.21
2017-02-04T03:35:04.371Z,928.23
2017-02-04T03:35:32.553Z,928.24
2017-02-04T03:36:00.691Z,928.22
2017-02-04T03:36:28.830Z,928.22
2017-02-04T03:36:56.977Z,928.21
2017-02-04T03:37:25.142Z,928.19
2017-02-04T03:37:53.185Z,928.17
2017-02-04T03:38:21.340Z,928.21
2017-02-04T03:38:49.603Z,928.21
2017-02-04T03:39:17.751Z,928.23
2017-02-04T03:39:45.909Z,928.19
2017-02-04T03:40:14.051Z,928.18
2017-02-04T03:40:42.045Z,928.2
2017-02-04T03:41:10.127Z,928.16
2017-02-04T03:41:38.201Z,928.16
2017-02-04T03:42:06.417Z,928.14
2017-02-04T03:42:34.619Z,928.13
2017-02-04T03:43:02.778Z,928.11
2017-02-04T03:43:31.103Z,928.12
2017-02-04T03:43:59.250Z,928.11
2017-02-04T03:44:27.472Z,928.1
2017-02-04T03:44:55.641Z,928.06
2017-02-04T03:45:23.827Z,928.04
2017-02-04T03:45:51.908Z,928.02
2017-02-04T03:46:20.139Z,927.99
2017-02-04T03:46:48.408Z,928
2017-02-04T03:47:16.405Z,927.96
2017-02-04T03:47:44.511Z,927.93
2017-02-04T03:48:12.567Z,927.92
2017-02-04T03:48:40.812Z,927.91
2017-02-04T03:49:08.951Z,927.89
2017-02-04T03:49:37.122Z,927.88
2017-02-04T03:50:05.440Z,927.85
2017-02-04T03:50:33.520Z,927.86
2017-02-04T03:51:01.637Z,927.86
2017-02-04T03:51:29.744Z,927.83
2017-02-04T03:51:57.788Z,927.85
2017-02-04T03:52:25.978Z,927.83
2017-02-04T03:52:54.202Z,927.84
2017-02-04T03:53:22.344Z,927.83
2017-02-04T03:53:50.407Z,927.87
2017-02-04T03:54:18.380Z,927.87
2017-02-04T03:54:46.612Z,927.85
2017-02-04T03:55:14.673Z,927.84
2017-02-04T03:55:42.659Z,927.86
2017-02-04T03:56:10.863Z,927.86
2017-02-04T03:56:38.947Z,927.87
2017-02-04T03:57:07.006Z,927.83
2017-02-04T03:57:35.159Z,927.81
2017-02-04T03:58:03.086Z,927.87
2017-02-04T03:58:31.395Z,927.83
2017-02-04T03:58:59.654Z,927.84
2017-02-04T03:59:27.721Z,927.8
2017-02-04T03:59:55.778Z,927.8
2017-02-04T04:00:23.911Z,927.77
2017-02-04T04:00:52.079Z,927.75
2017-02-04T04:01:20.291Z,927.72
2017-02-04T04:01:48.509Z,927.73
2017-02-04T04:02:16.701Z,927.73
2017-02-04T04:02:44.761Z,927.7
2017-02-04T04:03:12.775Z,927.73
2017-02-04T04:03:40.816Z,927.69
2017-02-04T04:04:08.794Z,927.69
2017-02-04T04:04:36.959Z,927.73
2017-02-04T04:05:05.104Z,927.67
2017-02-04T04:05:33.364Z,927.7
2017-02-04T04:06:01.611Z,927.69
2017-02-04T04:06:29.778Z,927.73
2017-02-04T04:06:57.773Z,927.69
2017-02-04T04:07:25.901Z,927.72
2017-02-04T04:07:54.026Z,927.7
2017-02-04T04:08:22.122Z,927.71
2017-02-04T04:08:50.267Z,927.71
2017-02-04T04:09:18.211Z,927.73
2017-02-04T04:09:46.229Z,927.71
2017-02-04T04:10:14.293Z,927.72
2017-02-04T04:10:42.301Z,927.71
2017-02-04T04:11:10.536Z,927.72
2017-02-04T04:11:38.561Z,927.7
2017-02-04T04:12:06.663Z,927.72
2017-02-04T04:12:34.924Z,927.73
2017-02-04T04:13:03.011Z,927.71
2017-02-04T04:13:31.141Z,927.7
2017-02-04T04:13:59.397Z,927.73
2017-02-04T04:14:27.541Z,927.69
2017-02-04T04:14:55.615Z,927.67
2017-02-04T04:15:23.678Z,927.72
2017-02-04T04:15:51.736Z,927.74
2017-02-04T04:16:19.833Z,927.72
2017-02-04T04:16:47.930Z,927.72
2017-02-04T04:17:16.022Z,927.72
2017-02-04T04:17:44.279Z,927.73
2017-02-04T04:18:12.270Z,927.71
2017-02-04T04:18:40.598Z,927.72
2017-02-04T04:19:08.544Z,927.68
2017-02-04T04:19:36.490Z,927.72
2017-02-04T04:20:04.567Z,927.7
2017-02-04T04:20:32.815Z,927.69
2017-02-04T04:21:01.028Z,927.71
2017-02-04T04:21:29.076Z,927.7
2017-02-04T04:21:57.253Z,927.71
2017-02-04T04:22:25.432Z,927.71
2017-02-04T04:22:53.670Z,927.68
2017-02-04T04:23:21.779Z,927.7
2017-02-04T04:23:49.950Z,927.69
2017-02-04T04:24:17.967Z,927.68
2017-02-04T04:24:46.157Z,927.69
2017-02-04T04:25:14.324Z,927.7
2017-02-04T04:25:42.587Z,927.73
2017-02-04T04:26:10.872Z,927.71
2017-02-04T04:26:38.933Z,927.74
2017-02-04T04:27:07.127Z,927.69
2017-02-04T04:27:35.125Z,927.73
2017-02-04T04:28:03.314Z,927.7
2017-02-04T04:28:31.378Z,927.71
2017-02-04T04:28:59.577Z,927.68
2017-02-04T04:29:27.749Z,927.68
2017-02-04T04:29:55.869Z,927.68
2017-02-04T04:30:24.190Z,927.66
2017-02-04T04:30:52.289Z,927.66
2017-02-04T04:31:20.495Z,927.66
2017-02-04T04:31:48.651Z,927.62
2017-02-04T04:32:16.729Z,927.65
2017-02-04T04:32:44.988Z,927.63
2017-02-04T04:33:13.243Z,927.64
2017-02-04T04:33:41.368Z,927.64
2017-02-04T04:34:09.633Z,927.64
2017-02-04T04:34:37.837Z,927.61
2017-02-04T04:35:05.762Z,927.63
2017-02-04T04:35:33.972Z,927.62
2017-02-04T04:36:02.279Z,927.67
2017-02-04T04:36:30.329Z,927.66
2017-02-04T04:36:58.509Z,927.64
2017-02-04T04:37:26.616Z,927.64
2017-02-04T04:37:54.737Z,927.63
2017-02-04T04:38:22.736Z,927.65
2017-02-04T04:38:51.043Z,927.64
2017-02-04T04:39:19.204Z,927.65
2017-02-04T04:39:47.218Z,927.64
2017-02-04T04:40:15.345Z,927.64
2017-02-04T04:40:43.473Z,927.63
2017-02-04T04:41:11.809Z,927.61
2017-02-04T04:41:39.970Z,927.62
2017-02-04T04:42:07.980Z,927.63
2017-02-04T04:42:36.191Z,927.61
2017-02-04T04:43:04.365Z,927.62
2017-02-04T04:43:32.327Z,927.62
2017-02-04T04:44:00.580Z,927.61
2017-02-04T04:44:28.667Z,927.59
2017-02-04T04:44:56.704Z,927.59
2017-02-04T04:45:24.849Z,927.58
2017-02-04T04:45:52.901Z,927.58
2017-02-04T04:46:20.927Z,927.6
2017-02-04T04:46:49.109Z,927.58
2017-02-04T04:47:17.242Z,927.58
2017-02-04T04:47:45.390Z,927.59
2017-02-04T04:48:13.391Z,927.6
2017-02-04T04:48:41.382Z,927.59
2017-02-04T04:49:09.622Z,927.59
2017-02-04T04:49:37.839Z,927.63
2017-02-04T04:50:06.041Z,927.6
2017-02-04T04:50:34.306Z,927.62
2017-02-04T04:51:02.477Z,927.63
2017-02-04T04:51:30.668Z,927.61
2017-02-04T04:51:58.784Z,927.57
2017-02-04T04:52:26.883Z,927.59
2017-02-04T04:52:55.036Z,927.57
2017-02-04T04:53:23.241Z,927.59
2017-02-04T04:53:51.504Z,927.59
2017-02-04T04:54:19.718Z,927.55
2017-02-04T04:54:47.844Z,927.52
2017-02-04T04:55:15.998Z,927.52
2017-02-04T04:55:44.217Z,927.55
2017-02-04T04:56:12.460Z,927.53
2017-02-04T04:56:40.572Z,927.54
2017-02-04T04:57:08.786Z,927.55
2017-02-04T04:57:36.932Z,927.53
2017-02-04T04:58:04.978Z,927.54
2017-02-04T04:58:33.036Z,927.54
2017-02-04T04:59:01.349Z,927.55
2017-02-04T04:59:29.574Z,927.54
2017-02-04T04:59:57.818Z,927.54
2017-02-04T05:00:25.969Z,927.54
2017-02-04T05:00:54.095Z,927.54
2017-02-04T05:01:22.312Z,927.53
2017-02-04T05:01:50.434Z,927.58
2017-02-04T05:02:18.608Z,927.57
2017-02-04T05:02:46.694Z,927.55
2017-02-04T05:03:14.994Z,927.53
2017-02-04T05:03:43.193Z,927.56
2017-02-04T05:04:11.449Z,927.53
2017-02-04T05:04:39.525Z,927.56
2017-02-04T05:05:07.721Z,927.54
2017-02-04T05:05:35.925Z,927.54
2017-02-04T05:06:04.068Z,927.53
2017-02-04T05:06:31.908Z,927.54
2017-02-04T05:07:00.143Z,927.53
2017-02-04T05:07:28.221Z,927.56
2017-02-04T05:07:56.463Z,927.5
2017-02-04T05:08:24.457Z,927.52
2017-02-04T05:08:52.553Z,927.53
2017-02-04T05:09:20.712Z,927.52
2017-02-04T05:09:48.752Z,927.53
2017-02-04T05:10:17.037Z,927.51
2017-02-04T05:10:45.304Z,927.5
2017-02-04T05:11:13.622Z,927.47
2017-02-04T05:11:41.820Z,927.51
2017-02-04T05:12:09.882Z,927.5
2017-02-04T05:12:37.987Z,927.47
2017-02-04T05:13:06.240Z,927.48
2017-02-04T05:13:34.417Z,927.45
2017-02-04T05:14:02.418Z,927.48
2017-02-04T05:14:30.533Z,927.46
2017-02-04T05:14:58.755Z,927.46
2017-02-04T05:15:26.788Z,927.45
2017-02-04T05:15:55.007Z,927.45
2017-02-04T05:16:23.140Z,927.46
2017-02-04T05:16:51.213Z,927.46
2017-02-04T05:17:19.399Z,927.45
2017-02-04T05:17:47.576Z,927.46
2017-02-04T05:18:15.818Z,927.43
2017-02-04T05:18:43.976Z,927.45
2017-02-04T05:19:11.936Z,927.44
2017-02-04T05:19:40.035Z,927.41
2017-02-04T05:20:08.124Z,927.44
2017-02-04T05:20:36.365Z,927.43
2017-02-04T05:21:04.402Z,927.42
2017-02-04T05:21:32.596Z,927.43
2017-02-04T05:22:00.783Z,927.41
2017-02-04T05:22:28.923Z,927.42
2017-02-04T05:22:57.167Z,927.41
2017-02-04T05:23:25.249Z,927.4
2017-02-04T05:23:53.297Z,927.4
2017-02-04T05:24:21.441Z,927.42
2017-02-04T05:24:49.583Z,927.41
2017-02-04T05:25:17.703Z,927.39
2017-02-04T05:25:45.923Z,927.39
2017-02-04T05:26:14.175Z,927.4
2017-02-04T05:26:42.479Z,927.41
2017-02-04T05:27:10.628Z,927.42
2017-02-04T05:27:38.818Z,927.42
2017-02-04T05:28:06.986Z,927.4
2017-02-04T05:28:34.960Z,927.42
2017-02-04T05:29:03.017Z,927.42
2017-02-04T05:29:31.309Z,927.43
2017-02-04T05:29:59.382Z,927.46
2017-02-04T05:30:27.499Z,927.44
2017-02-04T05:30:55.577Z,927.45
2017-02-04T05:31:23.656Z,927.47
2017-02-04T05:31:51.734Z,927.49
2017-02-04T05:32:19.845Z,927.45
2017-02-04T05:32:48.000Z,927.49
2017-02-04T05:33:16.020Z,927.49
2017-02-04T05:33:44.082Z,927.45
2017-02-04T05:34:12.270Z,927.48
2017-02-04T05:34:40.523Z,927.49
2017-02-04T05:35:08.521Z,927.48
2017-02-04T05:35:36.750Z,927.49
2017-02-04T05:36:04.979Z,927.46
2017-02-04T05:36:33.052Z,927.46
2017-02-04T05:37:01.233Z,927.47
2017-02-04T05:37:29.309Z,927.46
2017-02-04T05:37:57.383Z,927.45
2017-02-04T05:38:25.567Z,927.45
2017-02-04T05:38:53.535Z,927.45
2017-02-04T05:39:21.665Z,927.42
2017-02-04T05:39:49.973Z,927.46
2017-02-04T05:40:18.039Z,927.46
2017-02-04T05:40:46.229Z,927.47
2017-02-04T05:41:14.330Z,927.46
2017-02-04T05:41:42.557Z,927.47
2017-02-04T05:42:10.751Z,927.47
2017-02-04T05:42:38.611Z,927.47
2017-02-04T05:43:06.725Z,927.48
2017-02-04T05:43:34.914Z,927.48
2017-02-04T05:44:02.941Z,927.46
2017-02-04T05:44:31.005Z,927.45
2017-02-04T05:44:59.166Z,927.44
2017-02-04T05:45:27.180Z,927.44
2017-02-04T05:45:55.297Z,927.42
2017-02-04T05:46:23.593Z,927.42
2017-02-04T05:46:51.736Z,927.39
2017-02-04T05:47:19.910Z,927.41
2017-02-04T05:47:48.138Z,927.43
2017-02-04T05:48:16.182Z,927.4
2017-02-04T05:48:44.428Z,927.41
2017-02-04T05:49:12.705Z,927.39
2017-02-04T05:49:40.923Z,927.43
2017-02-04T05:50:09.097Z,927.41
2017-02-04T05:50:37.092Z,927.4
2017-02-04T05:51:05.267Z,927.37
2017-02-04T05:51:33.449Z,927.38
2017-02-04T05:52:01.558Z,927.37